Time;durP1;ratioP1;P1;durP2;ratioP2;P2;SDS_P1;SDS_P2;PMS_P1;PMS_P2;Temp;Humidity;BMP_temperature;BMP_pressure;BME280_temperature;BME280_humidity;BME280_pressure;Samples;Min_cycle;Max_cycle;Signal;HPM_P1;HPM_P2
2020/12/17 00:00:32;;;;;;;247.83;137.40;;;;;;;3.62;84.15;99774.22;124843;1098;65163;-81
2020/12/17 00:03:02;;;;;;;228.20;134.97;;;;;;;3.69;84.20;99770.52;125348;1098;65152;-81
2020/12/17 00:05:29;;;;;;;228.93;142.47;;;;;;;3.76;84.39;99764.16;125286;1098;65146;-81
2020/12/17 00:07:55;;;;;;;250.60;150.15;;;;;;;3.83;84.65;99767.52;124812;1098;65413;-81
2020/12/17 00:10:22;;;;;;;239.07;146.77;;;;;;;3.86;83.96;99770.92;124879;1100;65220;-81
2020/12/17 00:12:48;;;;;;;244.70;148.13;;;;;;;3.85;84.11;99770.98;125205;1098;65240;-81
2020/12/17 00:15:17;;;;;;;254.13;150.13;;;;;;;3.76;83.29;99772.06;124876;1100;65185;-81
2020/12/17 00:17:47;;;;;;;242.83;148.13;;;;;;;3.61;83.21;99773.36;125298;1098;65133;-81
2020/12/17 00:20:15;;;;;;;;;;;;;;;3.48;83.66;99770.17;124942;1098;65278;-80
2020/12/17 00:22:43;;;;;;;212.63;126.93;;;;;;;3.42;83.44;99767.70;125311;1098;65150;-81
2020/12/17 00:25:12;;;;;;;205.77;125.17;;;;;;;3.40;84.02;99763.38;125250;1099;65230;-81
2020/12/17 00:27:40;;;;;;;201.03;124.03;;;;;;;3.37;83.90;99761.69;125373;1099;65233;-81
2020/12/17 00:30:09;;;;;;;215.67;134.90;;;;;;;3.34;83.74;99760.88;125290;1098;65165;-81
2020/12/17 00:32:38;;;;;;;216.50;134.00;;;;;;;3.26;83.82;99761.06;124926;1100;65253;-81
2020/12/17 00:35:05;;;;;;;211.40;136.10;;;;;;;3.15;83.82;99771.86;125397;1098;65272;-81
2020/12/17 00:37:32;;;;;;;219.47;137.90;;;;;;;3.10;84.16;99767.61;125318;1099;65222;-82
2020/12/17 00:40:00;;;;;;;210.30;131.73;;;;;;;3.03;84.05;99762.50;124812;1100;65255;-81
2020/12/17 00:42:26;;;;;;;195.10;126.67;;;;;;;3.05;84.42;99770.34;124866;1100;65243;-81
2020/12/17 00:44:53;;;;;;;204.10;128.90;;;;;;;3.10;84.81;99767.61;124788;1100;65191;-81
2020/12/17 00:47:19;;;;;;;198.53;127.00;;;;;;;3.12;84.34;99774.58;124902;1100;65175;-81
2020/12/17 00:49:46;;;;;;;210.95;134.95;;;;;;;3.15;84.57;99769.23;125300;1099;65098;-81
2020/12/17 00:52:12;;;;;;;206.10;139.37;;;;;;;3.26;84.40;99775.09;125252;1098;65172;-81
2020/12/17 00:54:40;;;;;;;222.60;146.90;;;;;;;3.25;84.47;99781.27;124884;1098;65304;-81
2020/12/17 00:57:07;;;;;;;236.70;157.65;;;;;;;3.25;84.34;99781.27;124869;1099;65342;-81
2020/12/17 00:59:34;;;;;;;224.47;148.30;;;;;;;3.23;84.19;99779.58;124875;1098;65205;-81
2020/12/17 01:02:00;;;;;;;202.33;139.30;;;;;;;3.21;84.40;99778.74;124860;1100;65095;-81
2020/12/17 01:04:27;;;;;;;217.60;145.20;;;;;;;3.20;84.28;99779.66;125254;1098;65133;-81
2020/12/17 01:06:53;;;;;;;229.75;149.85;;;;;;;3.15;84.13;99777.12;124909;1100;65165;-81
2020/12/17 01:09:20;;;;;;;230.93;147.20;;;;;;;3.11;84.68;99774.59;124879;1100;65611;-81
2020/12/17 01:11:46;;;;;;;249.67;169.57;;;;;;;3.04;84.46;99773.90;125267;1098;65174;-81
2020/12/17 01:14:13;;;;;;;264.93;176.20;;;;;;;3.00;84.70;99777.48;125219;1098;65309;-81
2020/12/17 01:16:40;;;;;;;265.40;183.43;;;;;;;3.00;84.67;99765.22;125300;1099;65154;-81
2020/12/17 01:19:06;;;;;;;258.07;176.67;;;;;;;3.04;84.55;99768.62;124849;1100;65296;-81
2020/12/17 01:21:32;;;;;;;234.13;156.97;;;;;;;3.05;85.08;99771.24;124849;1100;65147;-81
2020/12/17 01:23:59;;;;;;;236.27;153.63;;;;;;;3.08;85.08;99773.80;124881;1100;65248;-81
2020/12/17 01:26:25;;;;;;;225.23;153.13;;;;;;;3.11;84.80;99766.70;124826;1100;65176;-81
2020/12/17 01:28:52;;;;;;;237.27;160.30;;;;;;;3.17;84.50;99763.94;124857;1100;65021;-81
2020/12/17 01:31:18;;;;;;;254.57;177.63;;;;;;;3.19;84.96;99765.63;125281;1098;65258;-81
2020/12/17 01:33:44;;;;;;;255.53;175.83;;;;;;;3.16;84.75;99770.98;124838;1099;65265;-81
2020/12/17 01:36:12;;;;;;;258.13;174.87;;;;;;;3.12;84.62;99771.08;124872;1100;65376;-80
2020/12/17 01:38:40;;;;;;;247.17;170.93;;;;;;;3.11;84.65;99764.06;124845;1100;65181;-80
2020/12/17 01:41:11;;;;;;;247.77;161.87;;;;;;;3.07;84.58;99764.14;124848;1100;65146;-80
2020/12/17 01:43:43;;;;;;;225.73;154.77;;;;;;;3.03;84.32;99764.28;124872;1100;65076;-80
2020/12/17 01:46:11;;;;;;;225.93;147.93;;;;;;;3.00;84.66;99765.22;125274;1098;65269;-80
2020/12/17 01:48:40;;;;;;;222.97;142.63;;;;;;;3.00;84.73;99757.31;124837;1100;65204;-80
2020/12/17 01:51:08;;;;;;;236.20;155.90;;;;;;;3.00;84.38;99756.42;125288;1098;65150;-80
2020/12/17 01:53:40;;;;;;;242.43;163.00;;;;;;;3.01;84.67;99753.77;124842;1100;65186;-80
2020/12/17 01:56:23;;;;;;;244.75;165.20;;;;;;;3.02;84.58;99754.63;125286;1098;65132;-80
2020/12/17 01:59:23;;;;;;;241.10;163.80;;;;;;;2.99;84.31;99752.08;125253;1098;65221;-80
2020/12/17 02:01:52;;;;;;;237.37;161.67;;;;;;;2.93;83.99;99758.36;125322;1098;65138;-82
2020/12/17 02:04:24;;;;;;;216.93;148.57;;;;;;;2.89;84.43;99755.82;125326;1098;65179;-81
2020/12/17 02:06:51;;;;;;;221.87;149.27;;;;;;;2.90;84.51;99758.44;124889;1098;65114;-81
2020/12/17 02:09:18;;;;;;;215.60;146.73;;;;;;;2.89;84.46;99754.05;124855;1100;65156;-81
2020/12/17 02:11:56;;;;;;;230.60;159.70;;;;;;;2.88;84.38;99754.96;124847;1100;65677;-81
2020/12/17 02:14:24;;;;;;;256.80;172.70;;;;;;;2.85;84.64;99749.77;125283;1099;65302;-81
2020/12/17 02:16:51;;;;;;;256.27;173.93;;;;;;;2.81;84.51;99746.33;125241;1098;65201;-81
2020/12/17 02:19:18;;;;;;;252.50;175.00;;;;;;;2.80;84.94;99741.98;125302;1098;65247;-81
2020/12/17 02:21:45;;;;;;;259.33;175.97;;;;;;;2.79;84.57;99742.00;125272;1098;65153;-81
2020/12/17 02:24:12;;;;;;;241.37;165.93;;;;;;;2.76;84.24;99749.97;125186;1098;65220;-81
2020/12/17 02:26:39;;;;;;;223.47;152.23;;;;;;;2.74;84.58;99741.23;125332;1098;65162;-81
2020/12/17 02:29:06;;;;;;;219.67;147.73;;;;;;;2.68;84.48;99746.66;125192;1098;65230;-81
2020/12/17 02:31:35;;;;;;;219.47;148.37;;;;;;;2.68;84.72;99744.88;125226;1098;65238;-81
2020/12/17 02:34:02;;;;;;;241.40;158.27;;;;;;;2.69;85.03;99746.63;124873;1100;65160;-81
2020/12/17 02:36:28;;;;;;;231.47;164.47;;;;;;;2.70;84.64;99753.61;124850;1098;65153;-81
2020/12/17 02:38:55;;;;;;;245.10;171.05;;;;;;;2.68;85.07;99758.04;125304;1098;65268;-81
2020/12/17 02:41:21;;;;;;;246.87;165.73;;;;;;;2.64;84.80;99754.63;124855;1100;65160;-80
2020/12/17 02:43:48;;;;;;;255.67;172.73;;;;;;;2.58;84.50;99756.51;125288;1098;65156;-81
2020/12/17 02:46:14;;;;;;;229.47;161.68;;;;;;;2.54;84.71;99744.34;124949;1099;65146;-82
2020/12/17 02:48:41;;;;;;;223.37;151.83;;;;;;;2.48;84.96;99745.34;125383;1099;65181;-81
2020/12/17 02:51:08;;;;;;;211.43;141.30;;;;;;;2.44;85.11;99742.80;124875;1098;65216;-82
2020/12/17 02:53:34;;;;;;;201.05;138.85;;;;;;;2.40;84.74;99736.76;125365;1099;65329;-80
2020/12/17 02:56:01;;;;;;;211.07;146.77;;;;;;;2.38;84.81;99746.44;125303;1098;65216;-82
2020/12/17 02:58:27;;;;;;;230.90;157.15;;;;;;;2.33;84.61;99743.04;125328;1100;65262;-81
2020/12/17 03:00:54;;;;;;;231.80;160.00;;;;;;;2.27;84.54;99740.55;125313;1098;65188;-81
2020/12/17 03:03:20;;;;;;;246.53;167.67;;;;;;;2.22;84.83;99740.64;125273;1098;65210;-81
2020/12/17 03:05:47;;;;;;;251.43;164.33;;;;;;;2.19;85.19;99748.59;124767;1100;65147;-81
2020/12/17 03:08:13;;;;;;;243.73;167.67;;;;;;;2.17;84.86;99743.36;124842;1099;65587;-81
2020/12/17 03:10:39;;;;;;;223.30;150.57;;;;;;;2.18;84.87;99741.59;124883;1100;65143;-82
2020/12/17 03:13:06;;;;;;;201.85;141.30;;;;;;;2.17;84.98;99739.87;124860;1099;65179;-81
2020/12/17 03:15:32;;;;;;;210.45;145.00;;;;;;;2.16;85.20;99738.15;125307;1098;65153;-81
2020/12/17 03:17:58;;;;;;;221.13;149.33;;;;;;;2.16;85.38;99735.52;125276;1098;65150;-80
2020/12/17 03:20:25;;;;;;;232.30;162.00;;;;;;;2.19;85.15;99743.34;124879;1100;65218;-80
2020/12/17 03:22:51;;;;;;;242.13;168.83;;;;;;;2.18;85.51;99741.59;124895;1098;65173;-80
2020/12/17 03:25:18;;;;;;;252.50;169.87;;;;;;;2.16;85.52;99740.78;124854;1100;65316;-80
2020/12/17 03:27:44;;;;;;;262.85;175.70;;;;;;;2.11;85.28;99743.50;124922;1098;65661;-80
2020/12/17 03:30:11;;;;;;;253.17;173.47;;;;;;;2.06;84.96;99737.47;125317;1098;65139;-80
2020/12/17 03:32:37;;;;;;;229.17;158.20;;;;;;;2.06;85.62;99736.60;124829;1098;65160;-80
2020/12/17 03:35:04;;;;;;;227.03;151.67;;;;;;;2.12;85.69;99739.09;125286;1099;65146;-80
2020/12/17 03:37:30;;;;;;;208.17;143.47;;;;;;;2.19;85.36;99738.94;124870;1099;65139;-80
2020/12/17 03:39:57;;;;;;;209.53;145.37;;;;;;;2.29;85.56;99739.63;125255;1098;65256;-80
2020/12/17 03:42:23;;;;;;;217.47;155.60;;;;;;;2.35;85.45;99738.62;124881;1100;65175;-80
2020/12/17 03:44:49;;;;;;;215.80;147.05;;;;;;;2.36;85.73;99735.08;125370;1098;65153;-80
2020/12/17 03:47:16;;;;;;;213.60;145.47;;;;;;;2.38;85.55;99731.52;124892;1100;65147;-80
2020/12/17 03:49:42;;;;;;;211.30;142.27;;;;;;;2.37;85.43;99736.80;125340;1100;65140;-80
2020/12/17 03:52:10;;;;;;;204.13;140.43;;;;;;;2.34;85.25;99740.39;124888;1100;65153;-80
2020/12/17 03:54:37;;;;;;;175.70;124.27;;;;;;;2.30;85.02;99728.19;124873;1100;65091;-80
2020/12/17 03:57:03;;;;;;;165.47;116.83;;;;;;;2.30;85.26;99735.22;124783;1099;65153;-80
2020/12/17 03:59:30;;;;;;;170.50;118.47;;;;;;;2.31;85.48;99729.91;124751;1100;65178;-80
2020/12/17 04:01:56;;;;;;;175.00;122.87;;;;;;;2.30;85.12;99717.67;125314;1098;65188;-80
2020/12/17 04:04:23;;;;;;;188.50;135.70;;;;;;;2.31;85.20;99731.68;124880;1100;65249;-81
2020/12/17 04:06:49;;;;;;;202.90;144.00;;;;;;;2.31;85.05;99729.05;124873;1100;65114;-80
2020/12/17 04:09:16;;;;;;;202.40;141.80;;;;;;;2.29;85.13;99730.84;124871;1100;65227;-81
2020/12/17 04:11:42;;;;;;;195.03;134.00;;;;;;;2.28;85.52;99731.75;125268;1098;65153;-80
2020/12/17 04:14:09;;;;;;;196.15;135.55;;;;;;;2.27;85.18;99735.30;125331;1098;65178;-80
2020/12/17 04:16:35;;;;;;;183.50;127.47;;;;;;;2.24;84.97;99728.33;124863;1098;65162;-81
2020/12/17 04:19:02;;;;;;;164.33;118.47;;;;;;;2.19;85.00;99722.30;124872;1100;65232;-81
2020/12/17 04:21:28;;;;;;;164.65;119.55;;;;;;;2.19;85.20;99728.42;124843;1099;65153;-81
2020/12/17 04:23:55;;;;;;;181.53;129.67;;;;;;;2.16;84.77;99727.63;125271;1098;65171;-81
2020/12/17 04:26:21;;;;;;;193.03;135.70;;;;;;;2.10;84.93;99723.34;124843;1100;65240;-80
2020/12/17 04:28:47;;;;;;;204.63;143.43;;;;;;;2.06;84.87;99728.72;124865;1098;65242;-81
2020/12/17 04:31:14;;;;;;;208.00;146.70;;;;;;;2.03;85.12;99734.01;125342;1098;65189;-81
2020/12/17 04:33:40;;;;;;;205.43;145.97;;;;;;;1.97;84.97;99732.38;124857;1100;65226;-80
2020/12/17 04:36:07;;;;;;;199.50;143.40;;;;;;;1.97;85.36;99738.52;124853;1100;65313;-80
2020/12/17 04:38:33;;;;;;;207.53;141.63;;;;;;;1.96;85.50;99735.91;125319;1098;65153;-80
2020/12/17 04:41:06;;;;;;;195.47;132.47;;;;;;;1.93;85.21;99734.21;124877;1100;65672;-80
2020/12/17 04:43:32;;;;;;;205.80;136.27;;;;;;;1.93;85.13;99734.21;124904;1100;65243;-82
2020/12/17 04:46:03;;;;;;;207.27;142.97;;;;;;;1.94;85.71;99737.70;124825;1100;65243;-81
2020/12/17 04:48:32;;;;;;;219.00;152.50;;;;;;;1.97;85.53;99741.16;125304;1098;65185;-81
2020/12/17 04:50:59;;;;;;;236.75;159.90;;;;;;;1.97;85.20;99741.16;124875;1100;65203;-81
2020/12/17 04:53:26;;;;;;;244.27;162.00;;;;;;;1.98;85.66;99739.38;124861;1098;65140;-81
2020/12/17 04:55:54;;;;;;;269.50;174.65;;;;;;;1.94;85.61;99750.84;124796;1100;65246;-81
2020/12/17 04:58:21;;;;;;;300.23;186.23;;;;;;;1.92;85.32;99750.00;124856;1098;65272;-81
2020/12/17 05:00:53;;;;;;;196.70;142.35;;;;;;;1.89;85.96;99743.04;124835;1100;66806;-83
2020/12/17 05:03:22;;;;;;;182.80;129.20;;;;;;;1.95;85.69;99747.34;124968;1100;65233;-81
2020/12/17 05:05:52;;;;;;;192.60;134.23;;;;;;;2.00;85.75;99747.22;124926;1100;65283;-83
2020/12/17 05:08:19;;;;;;;;;;;;;;;2.03;85.55;99744.52;124881;1100;65248;-80
2020/12/17 05:10:46;;;;;;;211.77;144.73;;;;;;;2.09;86.00;99753.17;124867;1100;65224;-80
2020/12/17 05:13:12;;;;;;;219.63;150.33;;;;;;;2.15;86.05;99750.41;124915;1098;65229;-83
2020/12/17 05:15:39;;;;;;;224.33;154.90;;;;;;;2.16;86.04;99757.42;124894;1100;65195;-80
2020/12/17 05:18:07;;;;;;;225.67;158.03;;;;;;;2.15;85.91;99754.80;125283;1100;65153;-80
2020/12/17 05:20:40;;;;;;;225.80;157.10;;;;;;;2.14;85.31;99761.83;124884;1098;65246;-80
2020/12/17 05:23:07;;;;;;;215.77;142.63;;;;;;;2.12;85.39;99762.76;124866;1099;65265;-81
2020/12/17 05:25:33;;;;;;;205.67;139.97;;;;;;;2.09;85.47;99757.57;124829;1100;65195;-81
2020/12/17 05:28:01;;;;;;;226.00;143.70;;;;;;;2.11;85.39;99755.78;124938;1100;65165;-80
2020/12/17 05:30:33;;;;;;;219.93;146.80;;;;;;;2.15;85.51;99758.30;125075;1098;65351;-80
2020/12/17 05:33:00;;;;;;;237.23;154.50;;;;;;;2.14;85.79;99761.83;125221;1099;65131;-81
2020/12/17 05:35:48;;;;;;;229.03;152.00;;;;;;;2.13;85.69;99764.48;124914;1100;65134;-81
2020/12/17 05:38:25;;;;;;;229.10;152.00;;;;;;;2.07;85.40;99751.47;125250;1098;65293;-81
2020/12/17 05:40:52;;;;;;;228.30;157.90;;;;;;;2.04;85.42;99765.54;124865;1100;65598;-81
2020/12/17 05:43:22;;;;;;;211.37;145.77;;;;;;;1.99;85.16;99772.65;124865;1098;65130;-81
2020/12/17 05:45:49;;;;;;;191.85;131.25;;;;;;;1.97;85.69;99775.33;124901;1100;65157;-81
2020/12/17 05:48:20;;;;;;;187.03;131.13;;;;;;;2.00;85.53;99778.77;125234;1098;65348;-81
2020/12/17 05:50:57;;;;;;;178.60;125.83;;;;;;;1.96;85.50;99775.34;124943;1100;65197;-81
2020/12/17 05:53:32;;;;;;;184.27;133.20;;;;;;;1.95;85.65;99777.11;124873;1100;65680;-81
2020/12/17 05:56:04;;;;;;;207.23;143.07;;;;;;;1.96;85.48;99772.71;125203;1098;65136;-81
2020/12/17 05:58:44;;;;;;;207.50;148.33;;;;;;;1.92;85.43;99771.03;125294;1099;65527;-81
2020/12/17 06:01:13;;;;;;;209.80;147.35;;;;;;;1.90;85.49;99770.21;124883;1100;65176;-81
2020/12/17 06:03:44;;;;;;;236.33;163.03;;;;;;;1.84;85.94;99768.54;124844;1100;65246;-81
2020/12/17 06:06:11;;;;;;;241.17;168.50;;;;;;;1.88;86.31;99769.38;125288;1098;65224;-81
2020/12/17 06:08:41;;;;;;;210.17;146.60;;;;;;;1.87;86.07;99770.25;125337;1099;65188;-81
2020/12/17 06:11:09;;;;;;;205.10;140.63;;;;;;;1.84;86.17;99768.54;124806;1100;65124;-81
2020/12/17 06:13:43;;;;;;;212.27;143.07;;;;;;;1.80;86.09;99766.02;124903;1098;65118;-81
2020/12/17 06:16:11;;;;;;;206.65;142.55;;;;;;;1.80;85.61;99774.77;124835;1098;65179;-81
2020/12/17 06:18:47;;;;;;;202.03;142.27;;;;;;;1.75;85.58;99777.47;124902;1100;65189;-81
2020/12/17 06:21:15;;;;;;;224.73;156.30;;;;;;;1.78;86.07;99781.81;125349;1098;65108;-81
2020/12/17 06:23:41;;;;;;;235.10;163.20;;;;;;;1.74;85.66;99781.01;124949;1100;65166;-81
2020/12/17 06:26:09;;;;;;;251.45;169.15;;;;;;;1.70;86.03;99786.34;124973;1099;65304;-81
2020/12/17 06:28:42;;;;;;;249.80;168.00;;;;;;;1.63;85.65;99784.70;125353;1098;65192;-81
2020/12/17 06:31:14;;;;;;;210.93;145.00;;;;;;;1.59;85.70;99791.79;124987;1098;65283;-81
2020/12/17 06:33:42;;;;;;;198.50;139.03;;;;;;;1.59;85.73;99790.93;124937;1100;65157;-81
2020/12/17 06:36:16;;;;;;;204.20;141.20;;;;;;;1.58;85.49;99790.06;125358;1098;65159;-81
2020/12/17 06:38:44;;;;;;;216.73;150.33;;;;;;;1.69;86.18;99801.24;124873;1099;65140;-81
2020/12/17 06:41:18;;;;;;;245.10;166.13;;;;;;;1.80;86.47;99803.67;124884;1100;65157;-81
2020/12/17 06:43:45;;;;;;;258.17;175.20;;;;;;;1.89;86.07;99802.63;124885;1099;65274;-81
2020/12/17 06:46:38;;;;;;;254.37;174.27;;;;;;;1.91;85.61;99804.34;124930;1100;65204;-81
2020/12/17 06:49:08;;;;;;;234.80;161.27;;;;;;;1.80;85.38;99808.93;124952;1100;65170;-81
2020/12/17 06:51:42;;;;;;;231.20;158.27;;;;;;;1.72;85.26;99816.09;124864;1098;65181;-81
2020/12/17 06:54:28;;;;;;;195.47;140.07;;;;;;;1.65;85.43;99820.57;125292;1100;65169;-81
2020/12/17 06:57:18;;;;;;;192.27;134.50;;;;;;;1.60;85.42;99830.29;125316;1098;65137;-81
2020/12/17 07:00:05;;;;;;;193.63;132.53;;;;;;;1.59;85.23;99840.84;124867;1100;65224;-81
2020/12/17 07:02:42;;;;;;;205.75;141.05;;;;;;;1.59;86.01;99838.22;124898;1099;65309;-81
2020/12/17 07:05:32;;;;;;;220.20;155.63;;;;;;;1.64;85.96;99831.98;124888;1098;65245;-81
2020/12/17 07:07:59;;;;;;;241.70;166.97;;;;;;;1.70;85.60;99834.50;125314;1098;65140;-81
2020/12/17 07:10:28;;;;;;;221.63;152.60;;;;;;;1.80;86.52;99827.33;124867;1100;65170;-81
2020/12/17 07:12:55;;;;;;;214.57;156.27;;;;;;;1.91;86.23;99827.13;124925;1099;65204;-81
2020/12/17 07:15:29;;;;;;;193.70;139.37;;;;;;;1.95;86.21;99831.45;125263;1098;65227;-81
2020/12/17 07:18:22;;;;;;;161.93;113.40;;;;;;;2.02;86.21;99840.08;124930;1100;65127;-81
2020/12/17 07:21:09;;;;;;;156.77;107.33;;;;;;;2.08;86.39;99834.69;124936;1100;65249;-81
2020/12/17 07:23:40;;;;;;;164.45;115.05;;;;;;;2.16;86.25;99828.41;124861;1099;65201;-81
2020/12/17 07:26:13;;;;;;;176.80;122.43;;;;;;;2.22;86.34;99830.05;124882;1100;65140;-81
2020/12/17 07:28:40;;;;;;;177.10;120.85;;;;;;;2.25;86.21;99837.88;125270;1100;65154;-84
2020/12/17 07:31:08;;;;;;;183.40;120.70;;;;;;;2.27;86.40;99836.09;125160;1100;65291;-93
2020/12/17 07:33:38;;;;;;;173.67;115.37;;;;;;;2.32;85.90;99841.27;125077;1100;65326;-93
2020/12/17 07:36:05;;;;;;;167.15;107.83;;;;;;;2.36;86.20;99842.92;125162;1100;65156;-93
2020/12/17 07:38:32;;;;;;;162.65;108.50;;;;;;;2.37;85.98;99845.53;125211;1100;65255;-94
2020/12/17 07:40:59;;;;;;;157.37;110.43;;;;;;;2.41;85.80;99844.56;125223;1098;65178;-94
2020/12/17 07:43:42;;;;;;;172.43;122.33;;;;;;;2.43;85.84;99839.28;125268;1100;65125;-94
2020/12/17 07:46:09;;;;;;;194.23;137.17;;;;;;;2.43;85.53;99849.80;125356;1099;65156;-94
2020/12/17 07:48:50;;;;;;;219.23;153.77;;;;;;;2.39;85.37;99845.48;125226;1100;65246;-94
2020/12/17 07:51:20;;;;;;;252.90;183.47;;;;;;;2.36;85.34;99850.81;125613;1100;65243;-93
2020/12/17 07:53:49;;;;;;;261.98;189.50;;;;;;;2.32;85.07;99857.91;125397;1098;65243;-82
2020/12/17 07:56:16;;;;;;;270.83;199.30;;;;;;;2.33;85.50;99858.77;125278;1098;65150;-82
2020/12/17 07:58:44;;;;;;;245.27;175.67;;;;;;;2.35;85.76;99856.98;125283;1098;65238;-82
2020/12/17 08:01:12;;;;;;;221.77;154.73;;;;;;;2.36;85.08;99853.45;125233;1098;65255;-82
2020/12/17 08:03:45;;;;;;;212.13;147.83;;;;;;;2.36;85.47;99856.94;125241;1098;65127;-82
2020/12/17 08:06:14;;;;;;;213.40;148.30;;;;;;;2.39;85.19;99851.61;125332;1098;65146;-81
2020/12/17 08:08:44;;;;;;;222.90;157.93;;;;;;;2.41;85.43;99851.59;125271;1098;65201;-82
2020/12/17 08:11:11;;;;;;;225.13;158.80;;;;;;;2.51;85.46;99847.02;125300;1098;65278;-82
2020/12/17 08:13:38;;;;;;;217.37;149.90;;;;;;;2.58;85.83;99846.86;125336;1098;65149;-82
2020/12/17 08:16:05;;;;;;;218.47;150.07;;;;;;;2.62;85.69;99843.25;125325;1098;65238;-82
2020/12/17 08:18:35;;;;;;;203.25;141.55;;;;;;;2.67;84.94;99839.67;125185;1098;65240;-82
2020/12/17 08:21:10;;;;;;;195.97;132.60;;;;;;;2.71;85.36;99841.32;125353;1098;65178;-82
2020/12/17 08:23:41;;;;;;;178.93;125.57;;;;;;;2.74;85.13;99835.98;125363;1098;65250;-82
2020/12/17 08:26:11;;;;;;;155.67;113.40;;;;;;;2.77;85.05;99833.32;125321;1098;65147;-82
2020/12/17 08:28:41;;;;;;;166.07;112.77;;;;;;;2.80;85.18;99830.61;125256;1098;65515;-82
2020/12/17 08:31:07;;;;;;;169.40;111.27;;;;;;;2.82;84.85;99836.72;125345;1098;65144;-82
2020/12/17 08:33:40;;;;;;;148.43;100.37;;;;;;;2.82;85.18;99831.45;125334;1098;65182;-82
2020/12/17 08:36:09;;;;;;;155.10;101.40;;;;;;;2.81;84.68;99838.45;125213;1098;65229;-82
2020/12/17 08:38:36;;;;;;;160.37;103.50;;;;;;;2.80;84.54;99838.52;125306;1098;65511;-82
2020/12/17 08:41:05;;;;;;;164.80;105.55;;;;;;;2.76;85.06;99845.59;124877;1098;65143;-84
2020/12/17 08:43:41;;;;;;;152.17;98.93;;;;;;;2.72;84.48;99853.61;125242;1098;65252;-81
2020/12/17 08:46:15;;;;;;;138.07;91.77;;;;;;;2.72;84.40;99853.61;125299;1098;65151;-81
2020/12/17 08:48:45;;;;;;;142.33;91.90;;;;;;;2.74;84.51;99860.56;124883;1100;65216;-81
2020/12/17 08:51:16;;;;;;;134.70;90.17;;;;;;;2.78;84.69;99859.59;125334;1098;65143;-83
2020/12/17 08:53:44;;;;;;;142.30;91.77;;;;;;;2.86;84.77;99864.69;125301;1098;65219;-82
2020/12/17 08:56:19;;;;;;;138.67;92.77;;;;;;;2.93;85.16;99862.80;125368;1099;65169;-83
2020/12/17 08:58:59;;;;;;;135.77;88.30;;;;;;;2.99;84.36;99850.36;125305;1098;66342;-81
2020/12/17 09:01:31;;;;;;;147.60;93.53;;;;;;;3.00;84.58;99848.58;125313;1098;65141;-81
2020/12/17 09:03:58;;;;;;;143.30;94.17;;;;;;;3.04;84.25;99855.53;125312;1098;65147;-82
2020/12/17 09:06:30;;;;;;;148.87;95.47;;;;;;;3.02;83.98;99849.42;125238;1098;65227;-81
2020/12/17 09:09:16;;;;;;;141.13;90.60;;;;;;;3.00;84.24;99859.11;125348;1098;65150;-81
2020/12/17 09:11:47;;;;;;;133.50;87.30;;;;;;;3.06;84.19;99851.96;125304;1098;65152;-81
2020/12/17 09:14:19;;;;;;;134.90;89.90;;;;;;;3.11;83.87;99853.61;125276;1098;65147;-81
2020/12/17 09:16:48;;;;;;;143.67;91.07;;;;;;;3.10;84.37;99847.48;125316;1098;65186;-81
2020/12/17 09:19:15;;;;;;;142.30;91.90;;;;;;;3.15;84.14;99850.02;125336;1099;65146;-81
2020/12/17 09:21:54;;;;;;;146.57;92.60;;;;;;;3.12;83.72;99861.48;125257;1098;65163;-81
2020/12/17 09:24:34;;;;;;;150.05;92.20;;;;;;;3.06;83.59;99856.37;125357;1098;65197;-82
2020/12/17 09:27:23;;;;;;;140.90;86.05;;;;;;;2.94;83.00;99844.33;125337;1098;65168;-82
2020/12/17 09:30:10;;;;;;;142.13;87.80;;;;;;;2.90;83.42;99844.42;125345;1098;65233;-81
2020/12/17 09:32:50;;;;;;;130.80;87.30;;;;;;;3.02;83.66;99838.89;125268;1098;65249;-81
2020/12/17 09:35:17;;;;;;;;;;;;;;;3.18;83.65;99842.03;125329;1098;65143;-81
2020/12/17 09:37:59;;;;;;;148.93;93.90;;;;;;;3.24;83.67;99834.88;125353;1098;65147;-81
2020/12/17 09:40:26;;;;;;;148.20;95.73;;;;;;;3.35;83.59;99831.98;125301;1098;65147;-81
2020/12/17 09:43:22;;;;;;;147.70;93.37;;;;;;;3.44;83.57;99833.52;125363;1098;65149;-81
2020/12/17 09:45:50;;;;;;;162.93;95.83;;;;;;;3.50;83.64;99828.09;125178;1098;65239;-83
2020/12/17 09:48:25;;;;;;;142.60;90.75;;;;;;;3.49;83.28;99831.64;125229;1098;65254;-82
2020/12/17 09:51:06;;;;;;;151.07;93.93;;;;;;;3.51;83.71;99830.70;125276;1098;65185;-82
2020/12/17 09:53:36;;;;;;;140.93;90.13;;;;;;;3.58;83.59;99835.80;125221;1098;65223;-82
2020/12/17 09:56:08;;;;;;;134.40;87.10;;;;;;;3.55;82.85;99836.75;125237;1098;65316;-83
2020/12/17 09:58:34;;;;;;;137.40;87.33;;;;;;;3.52;82.61;99829.78;125294;1098;65143;-82
2020/12/17 10:01:01;;;;;;;138.37;90.57;;;;;;;3.51;83.02;99829.84;125308;1099;65153;-82
2020/12/17 10:03:27;;;;;;;142.03;91.90;;;;;;;3.54;82.84;99821.84;125242;1099;65140;-83
2020/12/17 10:05:54;;;;;;;143.37;92.40;;;;;;;3.61;83.27;99827.84;125192;1099;65275;-83
2020/12/17 10:08:20;;;;;;;142.83;91.10;;;;;;;3.67;83.02;99817.14;125337;1098;65082;-82
2020/12/17 10:10:48;;;;;;;133.57;89.20;;;;;;;3.73;82.91;99822.24;125248;1098;65246;-82
2020/12/17 10:13:14;;;;;;;127.60;87.07;;;;;;;3.85;82.88;99821.94;125270;1098;65202;-83
2020/12/17 10:15:43;;;;;;;135.50;89.43;;;;;;;4.03;83.12;99822.33;125276;1098;65524;-81
2020/12/17 10:18:10;;;;;;;138.83;91.57;;;;;;;4.13;82.65;99822.07;125256;1098;65128;-83
2020/12/17 10:20:37;;;;;;;143.13;90.77;;;;;;;4.23;82.39;99816.52;125254;1098;65147;-83
2020/12/17 10:23:03;;;;;;;139.40;92.87;;;;;;;4.21;82.29;99821.83;125211;1098;65344;-81
2020/12/17 10:25:30;;;;;;;146.30;96.23;;;;;;;4.18;82.28;99822.78;125248;1098;65114;-81
2020/12/17 10:27:58;;;;;;;149.77;100.17;;;;;;;4.25;82.29;99828.77;125282;1098;65131;-82
2020/12/17 10:30:26;;;;;;;142.73;94.00;;;;;;;4.28;81.82;99830.45;125212;1098;65237;-82
2020/12/17 10:32:53;;;;;;;139.77;92.00;;;;;;;4.24;81.89;99823.52;125358;1098;65198;-82
2020/12/17 10:35:20;;;;;;;135.27;91.87;;;;;;;4.20;81.82;99821.89;125292;1098;65134;-82
2020/12/17 10:37:46;;;;;;;142.60;96.20;;;;;;;4.27;82.00;99819.05;125262;1098;65205;-82
2020/12/17 10:40:13;;;;;;;144.20;95.40;;;;;;;4.34;81.73;99825.00;125316;1098;65124;-81
2020/12/17 10:42:41;;;;;;;146.97;92.70;;;;;;;4.32;81.48;99826.84;125302;1098;65277;-81
2020/12/17 10:45:08;;;;;;;145.47;93.30;;;;;;;4.33;81.64;99823.28;125325;1098;65150;-80
2020/12/17 10:47:36;;;;;;;133.80;89.00;;;;;;;4.30;81.19;99829.50;125407;1098;65168;-82
2020/12/17 10:50:05;;;;;;;139.40;90.77;;;;;;;4.29;81.07;99830.43;125369;1098;65153;-81
2020/12/17 10:52:32;;;;;;;141.75;91.80;;;;;;;4.31;81.61;99831.22;125824;1098;65089;-84
2020/12/17 10:54:59;;;;;;;131.73;86.07;;;;;;;4.31;81.20;99818.03;124886;1099;65217;-85
2020/12/17 10:57:25;;;;;;;132.20;87.53;;;;;;;4.32;81.12;99827.70;125313;1098;65591;-84
2020/12/17 10:59:51;;;;;;;120.13;83.30;;;;;;;4.33;81.21;99829.41;124927;1099;65130;-84
2020/12/17 11:02:18;;;;;;;131.07;91.50;;;;;;;4.39;81.41;99823.09;126566;1099;65741;-84
2020/12/17 11:04:44;;;;;;;134.80;91.32;;;;;;;4.50;81.42;99828.06;126433;1098;65130;-86
2020/12/17 11:07:11;;;;;;;125.07;83.67;;;;;;;4.49;80.91;99823.70;125325;1100;65186;-85
2020/12/17 11:09:39;;;;;;;125.43;88.43;;;;;;;4.44;81.32;99822.97;125194;1098;65184;-85
2020/12/17 11:12:06;;;;;;;124.47;87.67;;;;;;;4.46;81.41;99819.38;125350;1098;65154;-85
2020/12/17 11:14:32;;;;;;;126.70;90.57;;;;;;;4.52;81.26;99819.19;125274;1099;65182;-85